Time,TemperatureF,DewpointF,PressureIn,WindDirection,WindDirectionDegrees,WindSpeedMPH,WindSpeedGustMPH,Humidity,HourlyPrecipIn,Conditions,Clouds,dailyrainin,SoftwareType,DateUTC
2013-06-28 00:02:00,67.0,64.0,-100.00,WSW,245,0.0,1.0,92,0.00,,,-99.99,,2013-06-28 04:02:00,
2013-06-28 00:22:00,67.0,65.0,-100.00,West,270,1.0,1.0,93,0.00,,,-99.99,,2013-06-28 04:22:00,
2013-06-28 00:33:00,67.0,65.0,-100.00,WSW,255,0.0,1.0,93,0.00,,,-99.99,,2013-06-28 04:33:00,
2013-06-28 00:53:00,67.0,65.0,-100.00,WSW,240,0.0,1.0,93,0.00,,,-99.99,,2013-06-28 04:53:00,
2013-06-28 01:22:00,66.0,64.0,-100.00,WSW,255,0.0,1.0,94,0.00,,,-99.99,,2013-06-28 05:22:00,
2013-06-28 01:43:00,66.0,64.0,-100.00,NNW,335,1.0,2.0,95,0.00,,,-99.99,,2013-06-28 05:43:00,
2013-06-28 02:22:00,66.0,63.0,-100.00,ESE,110,2.0,6.0,88,0.00,,,-99.99,,2013-06-28 06:22:00,
2013-06-28 03:11:00,67.0,60.0,-100.00,ESE,115,4.0,8.0,78,0.06,,,-99.99,,2013-06-28 07:11:00,
2013-06-28 03:22:00,66.0,60.0,-100.00,SSE,150,3.0,7.0,81,0.11,,,-99.99,,2013-06-28 07:22:00,
2013-06-28 03:33:00,65.0,61.0,-100.00,SE,140,4.0,8.0,87,0.21,,,-99.99,,2013-06-28 07:33:00,
2013-06-28 04:22:00,64.0,62.0,-100.00,East,90,4.0,7.0,92,0.30,,,-99.99,,2013-06-28 08:22:00,
2013-06-28 04:33:00,64.0,62.0,-100.00,East,85,3.0,6.0,93,0.06,,,-99.99,,2013-06-28 08:33:00,
2013-06-28 04:43:00,63.0,62.0,-100.00,East,95,4.0,9.0,93,0.01,,,-99.99,,2013-06-28 08:43:00,
2013-06-28 05:22:00,63.0,60.0,-100.00,East,85,5.0,15.0,90,0.00,,,-99.99,,2013-06-28 09:22:00,
2013-06-28 06:02:00,62.0,60.0,-100.00,ESE,110,6.0,12.0,93,0.33,,,-99.99,,2013-06-28 10:02:00,
2013-06-28 06:12:00,61.0,60.0,-100.00,East,85,4.0,9.0,94,0.34,,,-99.99,,2013-06-28 10:12:00,
2013-06-28 06:22:00,61.0,60.0,-100.00,SE,125,4.0,7.0,94,0.21,,,-99.99,,2013-06-28 10:22:00,
2013-06-28 07:02:00,60.0,58.0,-100.00,ENE,65,5.0,14.0,93,0.31,,,-99.99,,2013-06-28 11:02:00,
2013-06-28 07:22:00,60.0,58.0,-100.00,East,90,2.0,7.0,94,0.00,,,-99.99,,2013-06-28 11:22:00,
2013-06-28 08:22:00,61.0,58.0,-100.00,East,95,4.0,10.0,90,0.03,,,-99.99,,2013-06-28 12:22:00,
2013-06-28 08:34:00,61.0,58.0,-100.00,ENE,75,4.0,14.0,89,0.00,,,-99.99,,2013-06-28 12:34:00,
2013-06-28 08:52:00,62.0,59.0,-100.00,ESE,105,4.0,9.0,89,0.00,,,-99.99,,2013-06-28 12:52:00,
2013-06-28 09:01:00,62.0,59.0,-100.00,East,85,5.0,9.0,88,0.00,,,-99.99,,2013-06-28 13:01:00,
2013-06-28 09:11:00,62.0,58.0,-100.00,East,90,4.0,11.0,87,0.00,,,-99.99,,2013-06-28 13:11:00,
2013-06-28 09:33:00,62.0,58.0,-100.00,ESE,110,4.0,10.0,88,0.01,,,-99.99,,2013-06-28 13:33:00,
2013-06-28 09:53:00,61.0,58.0,-100.00,ESE,110,5.0,9.0,87,0.47,,,-99.99,,2013-06-28 13:53:00,
2013-06-28 11:02:00,62.0,59.0,-100.00,ESE,120,4.0,7.0,91,0.00,,,-99.99,,2013-06-28 15:02:00,
2013-06-28 11:34:00,62.0,60.0,-100.00,SW,230,0.0,4.0,91,0.00,,,-99.99,,2013-06-28 15:34:00,
2013-06-28 12:02:00,63.0,60.0,-100.00,NNE,15,0.0,2.0,92,0.00,,,-99.99,,2013-06-28 16:02:00,
2013-06-28 12:11:00,63.0,61.0,-100.00,South,180,1.0,4.0,90,0.00,,,-99.99,,2013-06-28 16:11:00,
2013-06-28 12:25:00,65.0,62.0,-100.00,East,95,2.0,4.0,88,0.00,,,-99.99,,2013-06-28 16:25:00,
2013-06-28 12:44:00,66.0,62.0,-100.00,SW,225,0.0,4.0,84,0.00,,,-99.99,,2013-06-28 16:44:00,
2013-06-28 13:02:00,66.0,61.0,-100.00,East,80,1.0,4.0,85,0.00,,,-99.99,,2013-06-28 17:02:00,
2013-06-28 13:11:00,66.0,62.0,-100.00,ESE,120,1.0,2.0,85,0.00,,,-99.99,,2013-06-28 17:11:00,
2013-06-28 13:22:00,67.0,62.0,-100.00,North,10,0.0,2.0,82,0.00,,,-99.99,,2013-06-28 17:22:00,
2013-06-28 13:52:00,70.0,63.0,-100.00,West,280,1.0,6.0,81,0.00,,,-99.99,,2013-06-28 17:52:00,
2013-06-28 14:12:00,72.0,64.0,-100.00,WSW,245,0.0,4.0,76,0.00,,,-99.99,,2013-06-28 18:12:00,
2013-06-28 14:33:00,72.0,65.0,-100.00,West,270,0.0,8.0,78,0.00,,,-99.99,,2013-06-28 18:33:00,
2013-06-28 14:43:00,72.0,64.0,-100.00,SSW,205,1.0,2.0,76,0.00,,,-99.99,,2013-06-28 18:43:00,
2013-06-28 15:01:00,73.0,64.0,-100.00,ESE,115,2.0,4.0,72,0.00,,,-99.99,,2013-06-28 19:01:00,
2013-06-28 15:11:00,74.0,64.0,-100.00,East,90,3.0,9.0,71,0.00,,,-99.99,,2013-06-28 19:11:00,
2013-06-28 15:22:00,74.0,64.0,-100.00,South,180,6.0,9.0,70,0.00,,,-99.99,,2013-06-28 19:22:00,
2013-06-28 15:33:00,74.0,64.0,-100.00,South,175,4.0,10.0,72,0.00,,,-99.99,,2013-06-28 19:33:00,
2013-06-28 16:11:00,76.0,65.0,-100.00,SSW,195,3.0,7.0,68,0.00,,,-99.99,,2013-06-28 20:11:00,
2013-06-28 16:22:00,75.0,64.0,-100.00,SSW,205,2.0,8.0,67,0.00,,,-99.99,,2013-06-28 20:22:00,
2013-06-28 16:52:00,75.0,63.0,-100.00,SSW,210,1.0,9.0,67,0.00,,,-99.99,,2013-06-28 20:52:00,
2013-06-28 17:02:00,76.0,64.0,-100.00,SSW,200,2.0,10.0,68,0.00,,,-99.99,,2013-06-28 21:02:00,
2013-06-28 17:43:00,75.0,64.0,-100.00,SSW,195,2.0,9.0,68,0.00,,,-99.99,,2013-06-28 21:43:00,
2013-06-28 18:01:00,76.0,64.0,-100.00,SW,215,1.0,7.0,66,0.00,,,-99.99,,2013-06-28 22:01:00,
2013-06-28 18:22:00,75.0,64.0,-100.00,SSE,150,4.0,9.0,68,0.00,,,-99.99,,2013-06-28 22:22:00,
2013-06-28 19:34:00,74.0,66.0,-100.00,ESE,120,0.0,2.0,77,0.00,,,-99.99,,2013-06-28 23:34:00,
2013-06-28 19:53:00,72.0,64.0,-100.00,WSW,250,0.0,4.0,77,0.00,,,-99.99,,2013-06-28 23:53:00,
2013-06-28 20:02:00,72.0,64.0,-100.00,West,260,0.0,3.0,77,0.00,,,-99.99,,2013-06-29 00:02:00,
2013-06-28 20:23:00,71.0,65.0,-100.00,West,280,0.0,2.0,81,0.00,,,-99.99,,2013-06-29 00:23:00,
2013-06-28 22:11:00,66.0,64.0,-100.00,West,260,0.0,0.0,91,0.00,,,-99.99,,2013-06-29 02:11:00,
2013-06-28 22:21:00,66.0,63.0,-100.00,West,280,0.0,1.0,92,0.00,,,-99.99,,2013-06-29 02:21:00,
2013-06-28 22:31:00,65.0,63.0,-100.00,West,260,0.0,1.0,93,0.00,,,-99.99,,2013-06-29 02:31:00,